Aeroporto :
LOGIN :

Iscrizione | Disclaimer

   EN    FR    IT 

 










Sommario :    VFR   VFR Marginale   IFR   IFR Intensivo   IFR Molto Intensivo
Visibilità : 
Base nubi : 
>= 8 km
>= 3000ft
5 / 8 km
1000 / 3000 ft
1500m / 5 km
500 / 1000 ft
800 / 1500m
200 / 500 ft
< 800m
< 200 ft
Simboli :   Temporali  Nebbia  Neve Forte  Precipitazioni Forti  Vento > 20 kt
SIGMETs :   Varie  Temporali  Ghiacco  Turbolenza  Onda orograficha  Ceneri Vulcaniche






- Altitudine del aeroporto : 782 ft
- Codice IATA : BGY


LIME - Orio al Serio International - Bergamo

ULTIMO METAR :
  • 181720Z 14004KT CAVOK 24/15 Q1019 NOSIG

METARs OBSOLETI :
  • 181650Z 15004KT CAVOK 25/16 Q1019 NOSIG
  • 181620Z 12004KT CAVOK 26/15 Q1019 NOSIG
  • 181520Z 17004KT 120V230 9999 FEW050 27/15 Q1020 NOSIG

TAF TAF LIME
Valido dal 18 a 18 ore il 19 a 18 ore UTC


181700Z 1818/1918 VRB05KT 9999 SCT050
BECMG 1908/1910 14010KT



MetMap, La meteo Aeronautica in un colpo d'occhio ! - Copyright ORBIFLY Dicembre 2007 - Disclaimer

ORBIFLY MET'MAP TEAM :

Programmazione e sviluppo : Alexandra Zaïnal
Concezione : Baudouin d'Aumeries
Aiuto per la programmazione : Marc-Olivier Méhu
Supporto tecnico e logistico : Manuel Goepfert
Aiuto per la traduzione : Arnaldo La Scala

Contatto : metmap@orbifly.com




FONTI E CREDITI :

   NOAA